Cosco Singapore — 2BOW4 — position and weather

sailwx.info

Track history (hours):
 
Tides and Currents Weather Stations Pressure Air Temp Water Temp Dewpoint Dewpoint Depression Visibility Wind Speed Wind Dir Waves Ship Positions

Cosco Singapore

Last reported at 2018-Feb-04 07:40 UTC. Time now 2018-Feb-20 01:25 UTC.
Position N 30°52' E 032°19'.
Warning: this ship's position is 15 days out of date.

Length 280 m; draft 13.9 m.

Type: Ship (hazmat cat A). MMSI: 235068032.

Date/timePositionNaut miles runAvg speedWind from/ knotsBaromVisibWave heightAir tempDewpointWater temp
2018-Feb-04 07:40N 30°52' E 032°19'2 9.2
2018-Feb-04 07:27N 30°54' E 032°19'5 9.2
2018-Feb-04 06:56N 30°59' E 032°19'3 8.1
2018-Feb-04 06:30N 31°02' E 032°19'4 8.0
2018-Feb-04 06:01N 31°06' E 032°19'4 7.3
2018-Feb-04 05:30N 31°10' E 032°20'3 6.1
2018-Feb-04 04:57N 31°13' E 032°21'3 7.2
2018-Feb-04 04:30N 31°16' E 032°21'4 8.5
2018-Feb-04 04:00N 31°20' E 032°23'4 7.9
2018-Feb-04 03:29N 31°24' E 032°24'3 5.4
2018-Feb-04 03:00N 31°27' E 032°23'3 6.4
2018-Feb-04 02:30N 31°27' E 032°19'1 1.0
2018-Feb-04 01:54N 31°27' E 032°19'0 0.1
2018-Feb-04 01:06N 31°27' E 032°19'0 0.0
2018-Feb-04 00:48N 31°27' E 032°19'0 0.0
2018-Feb-04 00:27N 31°27' E 032°19'0 0.0
2018-Feb-03 23:57N 31°27' E 032°19'0 0.0
2018-Feb-03 22:48N 31°27' E 032°19'0 0.0
2018-Feb-03 20:12N 31°27' E 032°19'0 0.0
2018-Feb-03 19:54N 31°27' E 032°19'0 0.0
2018-Feb-03 18:30N 31°27' E 032°19'0 0.0
2018-Feb-03 18:00N 31°27' E 032°19'0 0.0
2018-Feb-03 17:30N 31°27' E 032°19'0 0.0
2018-Feb-03 17:00N 31°27' E 032°19'28 5.3
2018-Feb-03 11:43N 31°32' E 031°46'3 6.9
2018-Feb-03 11:17N 31°29' E 031°46'  
2018-Jan-28 17:07N 35°50' E 030°23'112.4
2018-Jan-28 17:00N 35°50' E 030°21'23414.0
2018-Jan-28 00:20N 37°26' E 025°55'516.5
2018-Jan-28 00:00N 37°31' E 025°54'  
Track history (hours):
 
Tides and Currents Weather Stations Pressure Air Temp Water Temp Dewpoint Dewpoint Depression Visibility Wind Speed Wind Dir Waves Ship Positions

Cosco Singapore

Last reported at 2018-Feb-04 07:40 UTC. Time now 2018-Feb-20 01:25 UTC.
Position N 30°52' E 032°19'.
Warning: this ship's position is 15 days out of date.

Length 280 m; draft 13.9 m.

Type: Ship (hazmat cat A). MMSI: 235068032.

Date/timePositionNaut miles runAvg speedWind from/ knotsBaromVisibWave heightAir tempDewpointWater temp
2018-Feb-04 07:40N 30°52' E 032°19'2 9.2
2018-Feb-04 07:27N 30°54' E 032°19'5 9.2
2018-Feb-04 06:56N 30°59' E 032°19'3 8.1
2018-Feb-04 06:30N 31°02' E 032°19'4 8.0
2018-Feb-04 06:01N 31°06' E 032°19'4 7.3
2018-Feb-04 05:30N 31°10' E 032°20'3 6.1
2018-Feb-04 04:57N 31°13' E 032°21'3 7.2
2018-Feb-04 04:30N 31°16' E 032°21'4 8.5
2018-Feb-04 04:00N 31°20' E 032°23'4 7.9
2018-Feb-04 03:29N 31°24' E 032°24'3 5.4
2018-Feb-04 03:00N 31°27' E 032°23'3 6.4
2018-Feb-04 02:30N 31°27' E 032°19'1 1.0
2018-Feb-04 01:54N 31°27' E 032°19'0 0.1
2018-Feb-04 01:06N 31°27' E 032°19'0 0.0
2018-Feb-04 00:48N 31°27' E 032°19'0 0.0
2018-Feb-04 00:27N 31°27' E 032°19'0 0.0
2018-Feb-03 23:57N 31°27' E 032°19'0 0.0
2018-Feb-03 22:48N 31°27' E 032°19'0 0.0
2018-Feb-03 20:12N 31°27' E 032°19'0 0.0
2018-Feb-03 19:54N 31°27' E 032°19'0 0.0
2018-Feb-03 18:30N 31°27' E 032°19'0 0.0
2018-Feb-03 18:00N 31°27' E 032°19'0 0.0
2018-Feb-03 17:30N 31°27' E 032°19'0 0.0
2018-Feb-03 17:00N 31°27' E 032°19'28 5.3
2018-Feb-03 11:43N 31°32' E 031°46'3 6.9
2018-Feb-03 11:17N 31°29' E 031°46'  
2018-Jan-28 17:07N 35°50' E 030°23'112.4
2018-Jan-28 17:00N 35°50' E 030°21'23414.0
2018-Jan-28 00:20N 37°26' E 025°55'516.5
2018-Jan-28 00:00N 37°31' E 025°54'  

Dump ship's entire track history